AirNav   Air Wisconsin Up To $57,000 Bonus
 
 1100 users online  

22TA Pharmnall Airport
Grandview, Texas, USA

GOING TO GRANDVIEW?


FAA INFORMATION EFFECTIVE 20 MAY 2021

Location

FAA Identifier: 22TA
Lat/Long: 32-12-55.3700N 097-08-24.7800W
32-12.922833N 097-08.413000W
32.2153806,-97.1402167
(estimated)
Elevation: 658 ft. / 201 m (estimated)
From city: 4 miles SE of GRANDVIEW, TX
Time zone: UTC -5 (UTC -6 during Standard Time)
Zip code: 76055

Airport Operations

Airport use: Private use. Permission required prior to landing
Activation date: 10/2016
Control tower: no
ARTCC: FORT WORTH CENTER
FSS: FORT WORTH FLIGHT SERVICE STATION
Attendance: 
Segmented circle: no

Airport Communications

WX AWOS-3 at INJ (8 nm S): 118.725 (254-582-0063)
WX AWOS-3 at CPT (17 nm NW): 119.525 (817-641-4135)
WX AWOS-3 at JWY (19 nm NE): 119.575 (972-937-4747)

Nearby radio navigation aids

VOR radial/distance  VOR name  Freq  Var
ACTr002/33.8WACO VORTAC115.3009E
TTTr181/39.5MAVERICK VOR/DME113.1006E

 
NDB name  Hdg/Dist  Freq  Var  ID
POWELL278/37.434406ECGQ -.-. --. --.-
CORSICANA280/39.539606ECRS -.-. .-. ...

Airport Services

Runway Information

Runway 14/32

Dimensions: 2700 x 90 ft. / 823 x 27 m
Surface: turf, in good condition
RUNWAY 14  RUNWAY 32
Traffic pattern: leftleft

Airport Ownership and Management from official FAA records

Ownership: Privately-owned
Owner: JAMES NALL
4694 FM 67
GRANDVIEW, TX 76050
Phone 817-760-8598
Manager: JAMES NALL
PO BOX 53
GRANDVIEW, TX 76050
Phone 817-760-8598

Additional Remarks

FOR CD CTC FORT WORTH ARTCC AT 817-858-7584.

Instrument Procedures

There are no published instrument procedures at 22TA.

Some nearby airports with instrument procedures:

KINJ - Hillsboro Municipal Airport (8 nm S)
KCPT - Cleburne Regional Airport (17 nm NW)
KJWY - Mid-Way Regional Airport (19 nm NE)
KFWS - Fort Worth Spinks Airport (23 nm N)
F41 - Ennis Municipal Airport (25 nm E)
 
Loc | Ops | Rwys | IFR | FBO | Links
Com | Nav | Svcs | Stats | Notes

City of Fort Worth
 
Aerial photo
No photo
 
Airport distance calculator
Flying to Pharmnall Airport? Find the distance to fly.

From to 22TA

Sunrise and sunset
Times for 15-Jun-2021
 Local
(UTC-5)
 Zulu
(UTC)
Morning civil twilight05:5410:54
Sunrise06:2211:22
Sunset20:3601:36
Evening civil twilight21:0402:04

Current date and time
Zulu (UTC)  16-Jun-2021 01:21:20
Local (UTC-5)  15-Jun-2021 20:21:20
 
METAR
KINJ 
8nm S 
160055Z AUTO 07003KT 10SM CLR 32/21 A2998 RMK AO2 T03190213
KCPT 
17nm NW 
160055Z AUTO 08003KT 10SM CLR 32/20 A3000 RMK A01
KJWY 
18nm NE 
160055Z AUTO 00000KT 10SM CLR 32/20 A2999 RMK AO2 T03170195
TAF
KGKY 
27nm N 
152102Z 1521/1618 09006KT P6SM FEW070 FM160600 VRB02KT P6SM SKC FM161500 13005KT P6SM SKC
NOTAMs
Click for the latest NOTAMs
NOTAMs are issued by the DoD/FAA and will open in a separate window not controlled by AirNav.

 

 
 

Would you like to see your business listed on this page?

 If your business provides an interesting product or service to pilots, flight crews, aircraft, or users of the Pharmnall Airport, you should consider listing it here.  To start the listing process, click on the button below
 
Add a business
 

Other Pages about Pharmnall Airport

Update a link
 
Copyright © AirNav, LLC. All rights reserved. Privacy Policy  Contact